< Cyclone 201608 2016 Season Cyclone 201610 >
Cyclone 201609 (Uriah)
General InformationTrack Information on Google MapsDetailed Wind InformationList of All Images || ResourceGoogle EarthGE AnimationAtom FeedGeoJSON
Detalied Best Track (Time Zone = UTC)
Year Month Day Hour Lat. Long. Pressure (hPa) Wind (kt) Class Image Chart
2016 2 9 00 -11.6 94.0 1005 20 2 Image --
2016 2 9 06 -11.8 94.0 1005 20 2 Image --
2016 2 9 12 -13.1 93.4 1011 20 2 Image --
2016 2 10 00 -11.5 93.9 1012 15 2 Image --
2016 2 10 06 -11.6 94.7 1005 15 2 Image --
2016 2 10 12 -11.1 93.5 1009 20 2 Image --
2016 2 10 18 -10.4 94.4 1004 25 2 Image --
2016 2 11 00 -10.5 95.0 1004 25 2 Image --
2016 2 11 06 -9.6 95.6 1005 25 2 Image --
2016 2 11 12 -10.0 96.7 1003 30 2 Image --
2016 2 11 18 -9.9 97.6 1002 30 2 Image --
2016 2 12 00 -10.0 97.9 1001 30 2 Image --
2016 2 12 06 -10.5 97.3 1005 25 2 Image --
2016 2 12 12 -11.0 96.8 1004 25 2 Image --
2016 2 12 18 -11.5 96.1 1003 30 2 Image --
2016 2 13 00 -11.8 95.4 1000 35 3 Image --
2016 2 13 06 -11.8 94.3 999 35 3 Image --
2016 2 13 12 -12.3 94.2 994 40 3 Image --
2016 2 13 18 -13.0 93.0 996 40 3 Image --
2016 2 14 00 -13.5 92.0 991 45 3 Image --
2016 2 14 06 -14.0 91.1 988 50 4 Image --
2016 2 14 12 -15.0 90.4 987 50 4 Image --
< Cyclone 201608 2016 Season Cyclone 201610 >

Help